Time;durP1;ratioP1;P1;durP2;ratioP2;P2;SDS_P1;SDS_P2;PMS_P1;PMS_P2;Temp;Humidity;BMP_temperature;BMP_pressure;BME280_temperature;BME280_humidity;BME280_pressure;Samples;Min_cycle;Max_cycle;Signal;HPM_P1;HPM_P2
2021/08/11 00:01:47;;;;;;;3.92;1.25;;;;;;;33.65;28.73;98214.38;5071621;28;20035;-85
2021/08/11 00:04:13;;;;;;;2.95;1.60;;;;;;;34.19;27.77;98210.69;5056150;28;20041;-86
2021/08/11 00:06:40;;;;;;;2.38;1.10;;;;;;;34.59;26.93;98219.19;5057794;28;20689;-86
2021/08/11 00:09:06;;;;;;;2.92;1.33;;;;;;;34.72;27.07;98245.25;5054880;28;20093;-86
2021/08/11 00:11:33;;;;;;;4.57;1.73;;;;;;;34.41;27.53;98241.50;5055835;28;20037;-86
2021/08/11 00:14:00;;;;;;;1.77;1.50;;;;;;;34.28;27.79;98239.06;5065029;28;20037;-85
2021/08/11 00:16:26;;;;;;;3.13;1.48;;;;;;;34.33;28.19;98231.84;5057674;28;20100;-86
2021/08/11 00:18:54;;;;;;;2.08;1.52;;;;;;;34.08;28.61;98230.50;5056621;28;20039;-86
2021/08/11 00:21:23;;;;;;;3.38;1.20;;;;;;;33.88;28.59;98230.47;5064215;28;20037;-86
2021/08/11 00:23:50;;;;;;;3.17;1.50;;;;;;;34.38;28.15;98233.97;5059483;28;20036;-86
2021/08/11 00:26:16;;;;;;;1.75;1.30;;;;;;;34.15;28.42;98232.13;5059287;28;20036;-86
2021/08/11 00:28:43;;;;;;;1.45;1.33;;;;;;;34.41;27.81;98219.47;5056097;28;20045;-85
2021/08/11 00:31:09;;;;;;;2.20;1.25;;;;;;;34.62;27.13;98223.88;5062359;28;20028;-86
2021/08/11 00:33:35;;;;;;;1.65;1.00;;;;;;;34.89;26.70;98218.97;5055626;28;20029;-85
2021/08/11 00:36:01;;;;;;;1.85;1.20;;;;;;;34.94;26.97;98221.84;5055794;28;20021;-85
2021/08/11 00:38:27;;;;;;;1.25;1.15;;;;;;;34.77;27.27;98212.38;5055721;28;20032;-85
2021/08/11 00:40:53;;;;;;;2.58;1.30;;;;;;;34.82;27.15;98216.56;5059283;28;20119;-86
2021/08/11 00:43:19;;;;;;;1.50;1.17;;;;;;;34.71;27.14;98215.16;5068198;28;20082;-85
2021/08/11 00:45:45;;;;;;;1.90;1.40;;;;;;;34.50;27.37;98216.47;5062253;28;20035;-85
2021/08/11 00:48:12;;;;;;;2.60;1.40;;;;;;;34.20;27.66;98225.72;5057439;28;20037;-86
2021/08/11 00:50:39;;;;;;;3.05;1.30;;;;;;;33.86;28.65;98225.28;5055763;28;20125;-86
2021/08/11 00:53:07;;;;;;;2.33;1.85;;;;;;;33.50;29.17;98227.81;5056706;28;20032;-86
2021/08/11 00:55:40;;;;;;;2.22;1.30;;;;;;;33.72;28.60;98228.19;5055329;28;20087;-86
2021/08/11 00:58:10;;;;;;;2.10;1.38;;;;;;;34.02;28.07;98223.91;5056239;28;20033;-86
2021/08/11 01:00:45;;;;;;;2.90;1.15;;;;;;;34.36;27.20;98239.38;5069524;28;20062;-86
2021/08/11 01:03:17;;;;;;;1.70;1.15;;;;;;;34.69;26.96;98246.25;5061423;28;20111;-86
2021/08/11 01:05:45;;;;;;;1.20;1.10;;;;;;;34.91;26.88;98257.13;5053840;28;20455;-86
2021/08/11 01:08:12;;;;;;;2.05;1.55;;;;;;;34.54;28.01;98262.69;5055146;28;20112;-86
2021/08/11 01:10:40;;;;;;;3.42;1.58;;;;;;;34.11;28.87;98260.06;5054561;28;20036;-85
2021/08/11 01:13:07;;;;;;;2.30;1.38;;;;;;;33.70;29.66;98264.94;5063283;28;20480;-85
2021/08/11 01:15:33;;;;;;;2.72;1.48;;;;;;;33.28;29.89;98254.66;5071691;28;20044;-85
2021/08/11 01:17:59;;;;;;;1.70;1.50;;;;;;;33.67;29.26;98249.63;5060013;28;20037;-86
2021/08/11 01:20:26;;;;;;;2.55;1.55;;;;;;;33.86;29.07;98242.38;5056062;28;20028;-85
2021/08/11 01:22:59;;;;;;;2.35;1.75;;;;;;;34.31;28.01;98246.56;5055032;28;20064;-86
2021/08/11 01:25:38;;;;;;;1.73;1.40;;;;;;;34.72;27.47;98239.56;5054776;28;20041;-86
2021/08/11 01:28:16;;;;;;;1.40;1.10;;;;;;;34.90;26.95;98240.47;5053783;28;20055;-85
2021/08/11 01:31:07;;;;;;;1.52;1.20;;;;;;;34.65;27.16;98244.91;5067848;28;20036;-86
2021/08/11 01:33:49;;;;;;;2.33;1.60;;;;;;;34.53;27.14;98243.22;5074147;28;20064;-86
2021/08/11 01:36:44;;;;;;;2.28;1.40;;;;;;;34.43;27.33;98239.72;5074340;28;20107;-86
2021/08/11 01:39:38;;;;;;;2.30;1.20;;;;;;;34.62;26.87;98238.16;5059456;28;20041;-85
2021/08/11 01:42:17;;;;;;;1.50;1.20;;;;;;;34.84;26.83;98237.59;5072265;28;20028;-86
2021/08/11 01:44:51;;;;;;;1.58;1.20;;;;;;;34.89;26.92;98236.88;5071674;28;20036;-86
2021/08/11 01:47:20;;;;;;;2.83;1.42;;;;;;;34.71;27.03;98235.13;5054083;28;20041;-86
2021/08/11 01:49:49;;;;;;;1.63;1.25;;;;;;;34.38;27.21;98239.69;5068836;28;20047;-86
2021/08/11 01:52:17;;;;;;;1.42;1.00;;;;;;;34.43;26.78;98239.72;5074067;28;20031;-85
2021/08/11 01:54:45;;;;;;;1.80;1.42;;;;;;;34.20;27.41;98239.97;5072576;28;20052;-85
2021/08/11 01:57:13;;;;;;;2.10;1.60;;;;;;;33.86;28.18;98236.69;5062238;28;20386;-85
2021/08/11 01:59:40;;;;;;;1.27;1.13;;;;;;;32.71;30.07;98233.50;5054031;28;20040;-85
2021/08/11 02:02:10;;;;;;;2.25;1.60;;;;;;;33.19;29.43;98240.56;5054653;28;20036;-85
2021/08/11 02:04:36;;;;;;;3.90;1.25;;;;;;;33.59;28.02;98231.34;5054055;28;20061;-85
2021/08/11 02:07:04;;;;;;;1.50;1.15;;;;;;;33.59;27.95;98227.72;5059887;28;20068;-85
2021/08/11 02:09:31;;;;;;;1.75;1.20;;;;;;;33.41;28.42;98235.22;5054090;28;20404;-86
2021/08/11 02:11:57;;;;;;;1.35;1.02;;;;;;;33.43;28.53;98232.66;5064796;28;20473;-86
2021/08/11 02:14:23;;;;;;;1.25;1.15;;;;;;;33.66;28.25;98233.78;5067224;28;20040;-86
2021/08/11 02:16:49;;;;;;;1.20;1.10;;;;;;;33.88;27.87;98234.13;5061153;28;20116;-85
2021/08/11 02:19:16;;;;;;;1.20;1.10;;;;;;;34.02;27.43;98226.78;5054169;28;20431;-85
2021/08/11 02:21:42;;;;;;;1.65;1.30;;;;;;;33.74;27.93;98234.16;5063611;28;20040;-85
2021/08/11 02:24:10;;;;;;;1.67;1.10;;;;;;;33.63;27.90;98234.03;5058773;28;20033;-85
2021/08/11 02:27:00;;;;;;;2.83;1.17;;;;;;;33.92;27.30;98233.88;5056595;28;20029;-86
2021/08/11 02:29:28;;;;;;;1.53;1.20;;;;;;;34.21;26.46;98228.06;5055589;28;20025;-86
2021/08/11 02:32:18;;;;;;;1.10;1.00;;;;;;;34.23;26.38;98233.28;5052753;28;20032;-85
2021/08/11 02:34:56;;;;;;;1.33;1.00;;;;;;;33.66;27.09;98230.94;5059117;28;20066;-85
2021/08/11 02:37:31;;;;;;;0.88;0.85;;;;;;;33.38;26.98;98239.06;5053649;28;20108;-85
2021/08/11 02:40:03;;;;;;;1.13;0.80;;;;;;;33.64;26.88;98250.59;5062426;28;20056;-85
2021/08/11 02:42:40;;;;;;;0.70;0.68;;;;;;;33.78;26.75;98243.28;5053257;28;20588;-85
2021/08/11 02:45:11;;;;;;;0.57;0.50;;;;;;;33.88;26.60;98239.03;5059496;28;20396;-85
2021/08/11 02:47:39;;;;;;;0.75;0.60;;;;;;;33.97;26.94;98247.44;5063086;28;20076;-85
2021/08/11 02:50:08;;;;;;;1.35;0.75;;;;;;;33.94;26.31;98245.56;5052793;28;20511;-86
2021/08/11 02:52:37;;;;;;;0.85;0.85;;;;;;;33.62;27.37;98250.31;5061849;28;20039;-85
2021/08/11 02:55:04;;;;;;;1.13;0.80;;;;;;;33.42;27.21;98253.84;5060945;28;20033;-86
2021/08/11 02:57:31;;;;;;;1.20;1.10;;;;;;;33.52;27.78;98248.03;5063560;28;20063;-86
2021/08/11 02:59:59;;;;;;;0.80;0.80;;;;;;;33.71;26.96;98255.09;5055240;28;20572;-86
2021/08/11 03:02:25;;;;;;;0.95;0.93;;;;;;;33.94;26.76;98251.25;5060355;28;20032;-86
2021/08/11 03:04:52;;;;;;;0.70;0.63;;;;;;;34.11;26.37;98252.31;5052841;28;20056;-85
2021/08/11 03:07:18;;;;;;;0.90;0.90;;;;;;;34.22;26.44;98260.97;5061971;28;20029;-86
2021/08/11 03:09:44;;;;;;;1.33;0.90;;;;;;;34.19;26.59;98253.44;5052233;28;20159;-86
2021/08/11 03:12:11;;;;;;;1.60;1.02;;;;;;;34.24;26.57;98258.41;5059740;28;20574;-86
2021/08/11 03:14:42;;;;;;;0.90;0.80;;;;;;;34.35;26.21;98263.47;5061011;28;20489;-85
2021/08/11 03:17:12;;;;;;;0.77;0.77;;;;;;;34.43;26.22;98262.53;5053295;28;20166;-85
2021/08/11 03:19:39;;;;;;;1.33;1.10;;;;;;;34.55;26.15;98258.56;5060561;28;20394;-85
2021/08/11 03:22:08;;;;;;;1.00;0.90;;;;;;;34.67;26.11;98260.25;5051930;28;20045;-85
2021/08/11 03:24:34;;;;;;;1.50;1.13;;;;;;;34.13;26.25;98263.97;5055219;28;20485;-85
2021/08/11 03:27:00;;;;;;;1.27;1.00;;;;;;;33.69;27.09;98266.19;5054122;28;20041;-85
2021/08/11 03:29:26;;;;;;;1.00;0.90;;;;;;;33.54;27.01;98274.00;5055802;28;20024;-85
2021/08/11 03:31:52;;;;;;;0.60;0.60;;;;;;;33.78;26.61;98278.25;5067100;28;20033;-85
2021/08/11 03:34:18;;;;;;;1.13;0.93;;;;;;;33.97;26.33;98270.22;5066217;28;20041;-85
2021/08/11 03:36:44;;;;;;;1.38;0.80;;;;;;;34.09;26.36;98266.28;5059288;28;20112;-85
2021/08/11 03:39:10;;;;;;;0.60;0.60;;;;;;;34.29;25.92;98269.09;5052829;28;20032;-86
2021/08/11 03:41:36;;;;;;;0.90;0.90;;;;;;;33.85;26.85;98285.59;5053153;28;20520;-86
2021/08/11 03:44:03;;;;;;;3.45;0.88;;;;;;;33.62;26.73;98280.84;5061679;28;20059;-85
2021/08/11 03:46:30;;;;;;;0.85;0.70;;;;;;;33.41;27.27;98279.97;5051474;28;20041;-86
2021/08/11 03:48:57;;;;;;;0.80;0.80;;;;;;;33.06;27.85;98276.28;5054277;28;20029;-86
2021/08/11 03:51:23;;;;;;;1.10;0.88;;;;;;;33.24;27.54;98279.72;5060589;28;20081;-86
2021/08/11 03:53:49;;;;;;;0.52;0.50;;;;;;;33.54;26.78;98271.16;5065100;28;20043;-86
2021/08/11 03:56:15;;;;;;;0.73;0.73;;;;;;;34.00;26.38;98275.69;5055416;28;20033;-85
2021/08/11 03:58:41;;;;;;;2.05;0.70;;;;;;;34.38;25.57;98277.50;5061582;28;20028;-85
2021/08/11 04:01:07;;;;;;;2.80;0.80;;;;;;;34.59;26.04;98272.59;5065198;28;20045;-86
2021/08/11 04:03:33;;;;;;;0.70;0.70;;;;;;;34.47;25.95;98279.44;5055880;28;20543;-85
2021/08/11 04:05:59;;;;;;;0.80;0.80;;;;;;;34.50;25.46;98279.22;5064213;28;20029;-86
2021/08/11 04:08:25;;;;;;;0.90;0.70;;;;;;;34.60;25.78;98277.00;5056067;28;20039;-85
2021/08/11 04:10:52;;;;;;;0.57;0.57;;;;;;;34.70;25.58;98269.88;5064905;28;20108;-86
2021/08/11 04:13:19;;;;;;;0.88;0.73;;;;;;;34.79;25.57;98283.19;5064984;28;20089;-85
2021/08/11 04:15:46;;;;;;;0.52;0.52;;;;;;;34.82;25.58;98279.31;5067455;28;20029;-85
2021/08/11 04:18:12;;;;;;;1.30;0.60;;;;;;;34.99;25.91;98280.25;5056399;28;20044;-85
2021/08/11 04:20:39;;;;;;;0.60;0.60;;;;;;;35.14;25.63;98289.53;5056049;28;20025;-85
2021/08/11 04:23:07;;;;;;;0.70;0.70;;;;;;;34.93;26.64;98291.63;5060325;28;20064;-85
2021/08/11 04:25:36;;;;;;;1.15;0.80;;;;;;;35.40;26.35;98290.28;5069714;28;20028;-85
2021/08/11 04:28:04;;;;;;;1.17;0.60;;;;;;;35.81;26.05;98288.78;5058183;28;20512;-85
2021/08/11 04:30:30;;;;;;;1.05;0.77;;;;;;;36.13;25.59;98283.00;5058568;28;20429;-85
2021/08/11 04:32:56;;;;;;;0.90;0.82;;;;;;;36.31;25.64;98291.16;5062335;28;20397;-86
2021/08/11 04:35:22;;;;;;;1.92;0.90;;;;;;;36.19;24.88;98280.94;5064780;28;20033;-85
2021/08/11 04:37:48;;;;;;;0.60;0.60;;;;;;;36.37;25.32;98287.00;5067390;28;20031;-85
2021/08/11 04:40:15;;;;;;;0.98;0.90;;;;;;;36.66;25.63;98292.34;5074899;28;20032;-85
2021/08/11 04:42:41;;;;;;;0.82;0.70;;;;;;;36.95;25.36;98290.34;5057004;28;20381;-85
2021/08/11 04:45:08;;;;;;;0.98;0.80;;;;;;;37.06;24.96;98293.22;5073633;28;20094;-85
2021/08/11 04:47:34;;;;;;;1.10;0.90;;;;;;;37.22;25.45;98290.38;5074796;28;20120;-84
2021/08/11 04:50:01;;;;;;;0.90;0.90;;;;;;;37.37;24.56;98279.47;5074933;28;20055;-85
2021/08/11 04:52:27;;;;;;;0.80;0.80;;;;;;;37.52;25.26;98289.88;5074393;28;20122;-85
2021/08/11 04:54:53;;;;;;;1.33;0.90;;;;;;;37.53;24.68;98297.19;5074770;28;20063;-85
2021/08/11 04:57:19;;;;;;;1.50;1.02;;;;;;;36.98;25.25;98304.41;5067943;28;20117;-85
2021/08/11 04:59:45;;;;;;;0.80;0.80;;;;;;;36.41;26.30;98316.13;5061864;28;20057;-85
2021/08/11 05:02:11;;;;;;;1.38;1.20;;;;;;;36.01;26.68;98307.91;5062598;28;20037;-85
2021/08/11 05:04:39;;;;;;;1.30;1.02;;;;;;;35.83;26.87;98309.03;5054990;28;20039;-84
2021/08/11 05:07:07;;;;;;;2.13;1.40;;;;;;;35.37;27.50;98316.97;5055091;28;20402;-83
2021/08/11 05:09:34;;;;;;;2.78;1.63;;;;;;;35.66;27.43;98311.00;5063420;28;20037;-84
2021/08/11 05:12:00;;;;;;;3.08;1.55;;;;;;;35.81;27.05;98317.34;5055705;28;20033;-84
2021/08/11 05:14:26;;;;;;;2.33;1.58;;;;;;;35.51;27.75;98312.44;5069628;28;22523;-84
2021/08/11 05:16:53;;;;;;;3.00;1.40;;;;;;;36.14;27.32;98311.06;5059025;28;20020;-83
2021/08/11 05:19:19;;;;;;;1.42;1.30;;;;;;;36.67;26.77;98307.41;5059463;28;20037;-83
2021/08/11 05:21:45;;;;;;;1.45;1.33;;;;;;;36.94;25.88;98326.78;5054779;28;20179;-83
2021/08/11 05:24:11;;;;;;;1.60;1.33;;;;;;;36.55;26.37;98328.72;5054801;28;20037;-83
2021/08/11 05:26:39;;;;;;;1.23;1.10;;;;;;;36.62;27.05;98319.63;5059056;28;20054;-83
2021/08/11 05:29:05;;;;;;;1.15;1.05;;;;;;;36.85;26.42;98326.22;5071678;28;20036;-83
2021/08/11 05:31:31;;;;;;;1.38;1.20;;;;;;;37.13;26.35;98327.09;5074232;28;20066;-83
2021/08/11 05:33:57;;;;;;;1.77;1.00;;;;;;;37.24;26.16;98330.75;5072148;28;20033;-83
2021/08/11 05:36:23;;;;;;;1.65;1.38;;;;;;;37.07;26.03;98332.78;5073433;28;20035;-84
2021/08/11 05:38:49;;;;;;;2.03;1.60;;;;;;;36.66;26.91;98341.00;5073995;28;20033;-83
2021/08/11 05:41:15;;;;;;;1.80;1.20;;;;;;;36.64;26.50;98339.94;5074128;28;20032;-83
2021/08/11 05:43:41;;;;;;;1.77;1.10;;;;;;;36.82;26.85;98345.22;5074043;28;20035;-83
2021/08/11 05:46:07;;;;;;;1.35;1.25;;;;;;;36.96;26.64;98341.38;5073513;28;20067;-84
2021/08/11 05:48:33;;;;;;;1.83;1.50;;;;;;;36.64;26.82;98342.81;5072367;28;20447;-83
2021/08/11 05:50:59;;;;;;;3.28;1.42;;;;;;;36.84;27.71;98342.59;5073925;28;20032;-83
2021/08/11 05:53:25;;;;;;;3.88;1.75;;;;;;;36.98;26.76;98349.44;5073728;28;20033;-83
2021/08/11 05:55:52;;;;;;;4.07;1.50;;;;;;;37.04;26.92;98339.56;5072391;28;20025;-83
2021/08/11 05:58:18;;;;;;;2.60;1.83;;;;;;;36.92;27.31;98340.06;5073624;28;20473;-83
2021/08/11 06:00:44;;;;;;;2.58;1.85;;;;;;;37.02;26.89;98345.00;5073839;28;20218;-83
2021/08/11 06:03:10;;;;;;;4.50;2.75;;;;;;;36.38;26.88;98345.78;5073214;28;20113;-84
2021/08/11 06:05:36;;;;;;;2.65;1.88;;;;;;;36.13;27.97;98349.53;5073746;28;20557;-83
2021/08/11 06:08:03;;;;;;;3.13;1.63;;;;;;;36.16;27.97;98342.78;5073627;28;20033;-84
2021/08/11 06:10:29;;;;;;;1.85;1.70;;;;;;;36.35;28.16;98343.94;5064113;28;20036;-83
2021/08/11 06:12:55;;;;;;;2.88;1.58;;;;;;;36.86;27.52;98347.81;5053128;28;20040;-83
2021/08/11 06:15:21;;;;;;;3.03;2.20;;;;;;;36.88;26.93;98345.19;5053440;28;20048;-83
2021/08/11 06:17:49;;;;;;;4.80;2.13;;;;;;;37.02;27.02;98342.16;5053347;28;20052;-83
2021/08/11 06:20:18;;;;;;;2.70;1.98;;;;;;;37.15;27.11;98339.59;5054734;28;20037;-83
2021/08/11 06:22:45;;;;;;;5.10;2.55;;;;;;;36.62;26.96;98339.66;5073409;28;20134;-83
2021/08/11 06:25:13;;;;;;;2.33;2.00;;;;;;;35.96;27.73;98348.63;5073383;28;20054;-84
2021/08/11 06:27:39;;;;;;;4.25;3.05;;;;;;;35.87;27.97;98351.69;5072907;28;20039;-83
2021/08/11 06:30:07;;;;;;;2.60;2.08;;;;;;;35.90;28.22;98351.44;5073689;28;20031;-83
2021/08/11 06:32:33;;;;;;;4.85;3.00;;;;;;;36.45;27.67;98350.25;5073244;28;20031;-83
2021/08/11 06:34:59;;;;;;;2.92;2.60;;;;;;;36.76;27.00;98337.91;5073047;28;20031;-83
2021/08/11 06:37:25;;;;;;;3.67;2.60;;;;;;;36.71;27.10;98345.19;5071877;28;20067;-83
2021/08/11 06:39:51;;;;;;;5.32;2.58;;;;;;;36.74;26.75;98338.41;5073531;28;20032;-83
2021/08/11 06:42:17;;;;;;;4.05;2.90;;;;;;;36.39;27.46;98332.25;5073000;28;20484;-83
2021/08/11 06:44:43;;;;;;;4.97;2.97;;;;;;;36.39;27.57;98335.09;5071654;28;20033;-83
2021/08/11 06:47:09;;;;;;;3.20;2.33;;;;;;;36.97;26.91;98336.44;5072958;28;20078;-83
2021/08/11 06:49:36;;;;;;;2.95;2.28;;;;;;;37.08;26.83;98330.72;5073158;28;20389;-83
2021/08/11 06:52:02;;;;;;;1.73;1.63;;;;;;;36.60;26.71;98342.25;5073696;28;20372;-83
2021/08/11 06:54:28;;;;;;;3.20;2.33;;;;;;;35.70;28.37;98342.22;5062654;28;20028;-83
2021/08/11 06:56:54;;;;;;;2.95;2.72;;;;;;;35.55;28.45;98333.78;5071825;28;20396;-83
2021/08/11 06:59:20;;;;;;;3.63;2.17;;;;;;;36.07;27.95;98337.28;5072749;28;20533;-83
2021/08/11 07:01:46;;;;;;;3.15;2.05;;;;;;;36.30;27.36;98341.84;5052677;28;20120;-83
2021/08/11 07:04:13;;;;;;;2.92;1.95;;;;;;;36.65;27.70;98339.41;5053144;28;20079;-83
2021/08/11 07:06:40;;;;;;;3.58;2.80;;;;;;;35.99;28.45;98339.03;5053228;28;20033;-83
2021/08/11 07:09:07;;;;;;;3.78;2.65;;;;;;;36.65;26.71;98339.41;5053558;28;20071;-83
2021/08/11 07:11:33;;;;;;;5.20;2.30;;;;;;;36.52;27.53;98353.44;5056427;28;20028;-82
2021/08/11 07:13:59;;;;;;;4.45;2.40;;;;;;;36.06;27.00;98342.22;5072199;28;20104;-84
2021/08/11 07:16:25;;;;;;;3.13;1.98;;;;;;;35.26;28.29;98349.09;5072462;28;20037;-82
2021/08/11 07:18:51;;;;;;;3.90;2.03;;;;;;;36.08;27.82;98347.44;5068338;28;20021;-82
2021/08/11 07:21:17;;;;;;;3.63;2.20;;;;;;;35.92;26.95;98351.72;5053065;28;20068;-83
2021/08/11 07:23:43;;;;;;;5.40;2.00;;;;;;;36.20;27.20;98348.28;5068091;28;20050;-82
2021/08/11 07:26:10;;;;;;;4.10;2.03;;;;;;;36.06;26.70;98347.94;5054759;28;20116;-83
2021/08/11 07:28:36;;;;;;;3.95;2.20;;;;;;;35.43;26.52;98344.28;5063595;28;20103;-83
2021/08/11 07:31:03;;;;;;;5.60;1.65;;;;;;;35.86;27.25;98353.75;5076351;28;20039;-83
2021/08/11 07:33:29;;;;;;;3.42;2.20;;;;;;;35.94;26.62;98359.78;5076276;28;20154;-83
2021/08/11 07:35:55;;;;;;;2.70;2.17;;;;;;;35.09;27.58;98356.69;5076212;28;20056;-83
2021/08/11 07:38:22;;;;;;;2.65;1.75;;;;;;;36.08;26.86;98358.09;5076431;28;20028;-83
2021/08/11 07:40:48;;;;;;;2.60;1.65;;;;;;;36.02;26.50;98361.69;5076279;28;20434;-83
2021/08/11 07:43:14;;;;;;;3.00;2.00;;;;;;;35.34;27.03;98355.91;5075887;28;20044;-83
2021/08/11 07:45:40;;;;;;;3.17;1.73;;;;;;;35.60;26.99;98364.47;5074400;28;20066;-83
2021/08/11 07:48:07;;;;;;;4.53;2.33;;;;;;;35.99;25.98;98365.56;5076038;28;20079;-83
2021/08/11 07:50:36;;;;;;;5.82;2.03;;;;;;;36.02;25.44;98361.69;5076218;28;20039;-83
2021/08/11 07:53:03;;;;;;;1.93;1.73;;;;;;;36.06;25.83;98365.09;5062577;28;20082;-83
2021/08/11 07:55:30;;;;;;;1.95;1.60;;;;;;;36.14;25.78;98367.47;5056238;28;20053;-83
2021/08/11 07:57:56;;;;;;;2.65;1.90;;;;;;;36.18;25.64;98374.53;5056127;28;20033;-83
2021/08/11 08:00:22;;;;;;;3.15;1.20;;;;;;;36.19;24.62;98375.31;5055477;28;20072;-83
2021/08/11 08:02:50;;;;;;;1.60;1.50;;;;;;;34.65;26.52;98382.63;5062113;28;20388;-83
2021/08/11 08:05:16;;;;;;;1.73;1.50;;;;;;;35.00;25.79;98376.03;5072084;28;20533;-83
2021/08/11 08:07:42;;;;;;;1.92;1.50;;;;;;;34.38;26.93;98380.16;5074706;28;20480;-83
2021/08/11 08:10:10;;;;;;;2.15;1.67;;;;;;;35.43;25.62;98377.78;5075935;28;20025;-83
2021/08/11 08:12:38;;;;;;;1.50;1.40;;;;;;;35.59;26.23;98373.56;5075488;28;20021;-83
2021/08/11 08:15:05;;;;;;;2.58;1.52;;;;;;;35.64;26.99;98375.69;5075933;28;20036;-83
2021/08/11 08:17:31;;;;;;;1.10;1.00;;;;;;;35.86;26.07;98379.47;5075546;28;20047;-83
2021/08/11 08:19:57;;;;;;;2.22;1.33;;;;;;;35.37;26.09;98382.66;5075519;28;20041;-83
2021/08/11 08:22:23;;;;;;;2.28;1.42;;;;;;;35.22;27.00;98379.91;5074318;28;20028;-83
2021/08/11 08:24:54;;;;;;;2.38;1.58;;;;;;;35.17;26.50;98372.06;5075508;28;20048;-83
2021/08/11 08:27:22;;;;;;;2.65;1.25;;;;;;;35.80;25.40;98384.34;5075191;28;20120;-82
2021/08/11 08:29:48;;;;;;;2.00;1.67;;;;;;;34.93;26.44;98377.25;5075261;28;20060;-83
2021/08/11 08:32:14;;;;;;;2.28;1.55;;;;;;;35.49;26.18;98381.47;5075489;28;20086;-82
2021/08/11 08:34:40;;;;;;;2.10;1.65;;;;;;;35.68;25.55;98379.88;5075173;28;20027;-82
2021/08/11 08:37:06;;;;;;;1.38;1.17;;;;;;;35.31;25.73;98382.59;5074117;28;20112;-82
2021/08/11 08:39:32;;;;;;;1.35;1.25;;;;;;;35.57;25.55;98373.28;5075353;28;20029;-83
2021/08/11 08:42:00;;;;;;;1.75;1.30;;;;;;;35.96;25.84;98389.44;5074863;28;20037;-82
2021/08/11 08:44:26;;;;;;;2.17;1.48;;;;;;;35.52;25.47;98380.50;5075346;28;20101;-83
2021/08/11 08:46:55;;;;;;;1.83;1.13;;;;;;;34.80;27.77;98376.81;5053605;28;20045;-83
2021/08/11 08:49:21;;;;;;;1.48;1.30;;;;;;;35.93;25.59;98381.09;5054966;28;20036;-83
2021/08/11 08:51:53;;;;;;;2.05;1.10;;;;;;;35.80;25.79;98381.50;5054946;28;20029;-83
2021/08/11 08:54:23;;;;;;;1.95;1.40;;;;;;;34.72;25.48;98370.78;5065317;28;20433;-83
2021/08/11 08:56:50;;;;;;;3.00;1.85;;;;;;;35.84;24.21;98379.22;5074757;28;20130;-82
2021/08/11 08:59:16;;;;;;;1.40;1.30;;;;;;;36.27;24.81;98376.41;5070164;28;20024;-83
2021/08/11 09:01:43;;;;;;;1.10;1.00;;;;;;;36.52;23.67;98381.25;5074567;28;20040;-83
2021/08/11 09:04:09;;;;;;;1.58;1.20;;;;;;;35.42;25.25;98382.72;5074900;28;20104;-83
2021/08/11 09:06:36;;;;;;;2.70;1.10;;;;;;;34.68;25.71;98373.06;5074865;28;20392;-83
2021/08/11 09:09:10;;;;;;;2.38;1.42;;;;;;;34.97;26.03;98379.88;5074827;28;20025;-83
2021/08/11 09:11:39;;;;;;;1.92;1.40;;;;;;;35.13;24.73;98370.72;5073090;28;20486;-82
2021/08/11 09:14:23;;;;;;;2.55;1.23;;;;;;;34.78;25.22;98370.03;5074291;28;20484;-83
2021/08/11 09:16:52;;;;;;;2.42;1.40;;;;;;;35.06;24.82;98366.25;5074554;28;20389;-83
2021/08/11 09:19:18;;;;;;;1.75;1.27;;;;;;;35.33;25.35;98370.69;5074675;28;20033;-83
2021/08/11 09:22:07;;;;;;;1.92;1.42;;;;;;;35.01;25.77;98366.19;5073091;28;20032;-83
2021/08/11 09:24:36;;;;;;;2.40;1.13;;;;;;;35.54;24.24;98372.22;5074456;28;20476;-83
2021/08/11 09:27:25;;;;;;;2.60;1.50;;;;;;;35.03;26.30;98358.69;5074188;28;20037;-83
2021/08/11 09:30:01;;;;;;;2.33;1.75;;;;;;;35.74;24.94;98369.25;5074010;28;20020;-83
2021/08/11 09:32:28;;;;;;;1.40;1.27;;;;;;;35.43;26.45;98366.34;5074418;28;20036;-83
2021/08/11 09:34:56;;;;;;;2.13;1.70;;;;;;;35.30;25.14;98368.84;5074115;28;20111;-82
2021/08/11 09:37:43;;;;;;;2.38;1.50;;;;;;;34.99;25.35;98360.97;5074095;28;20480;-83
2021/08/11 09:40:17;;;;;;;3.08;1.20;;;;;;;35.51;24.24;98372.44;5074086;28;20043;-83
2021/08/11 09:42:45;;;;;;;1.95;1.10;;;;;;;36.24;24.36;98371.72;5074033;28;20056;-83
2021/08/11 09:45:13;;;;;;;1.27;1.10;;;;;;;36.52;23.18;98373.44;5062576;28;20033;-83
2021/08/11 09:47:53;;;;;;;2.55;1.27;;;;;;;36.75;23.63;98368.59;5072268;28;20045;-83
2021/08/11 09:50:30;;;;;;;1.25;0.93;;;;;;;36.76;24.24;98377.97;5068690;28;20064;-83
2021/08/11 09:52:56;;;;;;;1.08;0.95;;;;;;;35.66;25.50;98373.84;5073921;28;20039;-82
2021/08/11 09:55:22;;;;;;;2.05;1.25;;;;;;;35.00;26.01;98368.25;5073907;28;20028;-83
2021/08/11 09:57:48;;;;;;;2.00;1.63;;;;;;;34.97;26.28;98368.47;5073693;28;20036;-83
2021/08/11 10:00:15;;;;;;;2.33;1.40;;;;;;;34.99;25.26;98368.72;5062068;28;20556;-83
2021/08/11 10:02:45;;;;;;;4.55;1.35;;;;;;;35.10;25.68;98377.47;5064475;28;20037;-82
2021/08/11 10:05:32;;;;;;;1.27;1.15;;;;;;;35.31;25.09;98374.03;5073603;28;20501;-83
2021/08/11 10:07:58;;;;;;;3.00;1.40;;;;;;;35.54;24.75;98371.44;5073602;28;20036;-83
2021/08/11 10:10:25;;;;;;;3.00;1.60;;;;;;;35.10;24.55;98377.47;5073459;28;20036;-83
2021/08/11 10:12:52;;;;;;;3.22;2.08;;;;;;;35.50;25.22;98374.50;5073500;28;20036;-83
2021/08/11 10:15:19;;;;;;;2.47;1.40;;;;;;;35.90;24.96;98382.88;5073329;28;20039;-83
2021/08/11 10:17:48;;;;;;;3.17;1.50;;;;;;;36.23;24.29;98381.56;5073573;28;20108;-82
2021/08/11 10:20:17;;;;;;;1.50;1.40;;;;;;;35.82;24.81;98367.50;5073179;28;20031;-83
2021/08/11 10:22:44;;;;;;;3.17;1.42;;;;;;;35.72;24.52;98377.56;5073357;28;20388;-83
2021/08/11 10:25:11;;;;;;;2.15;1.48;;;;;;;35.57;25.08;98373.28;5072998;28;20040;-83
2021/08/11 10:27:42;;;;;;;3.33;1.33;;;;;;;36.25;24.80;98370.41;5066238;28;20382;-82
2021/08/11 10:30:09;;;;;;;2.58;2.03;;;;;;;36.28;23.63;98360.81;5071833;28;20455;-83
2021/08/11 10:32:37;;;;;;;2.80;1.67;;;;;;;35.81;24.14;98371.66;5073294;28;20142;-83
2021/08/11 10:35:04;;;;;;;2.22;1.60;;;;;;;36.23;23.97;98375.84;5073097;28;20546;-83
2021/08/11 10:37:32;;;;;;;1.50;1.30;;;;;;;37.47;23.43;98368.81;5072736;28;20483;-83
2021/08/11 10:40:00;;;;;;;1.40;1.30;;;;;;;37.05;22.81;98368.97;5073357;28;20032;-83
2021/08/11 10:42:27;;;;;;;4.22;1.58;;;;;;;37.46;23.20;98363.59;5073049;28;20032;-83
2021/08/11 10:45:00;;;;;;;2.55;1.65;;;;;;;36.33;23.39;98366.56;5071355;28;20039;-83
2021/08/11 10:47:31;;;;;;;1.42;1.20;;;;;;;37.33;22.56;98364.88;5072599;28;20049;-83
2021/08/11 10:50:00;;;;;;;3.28;1.60;;;;;;;37.11;23.78;98369.78;5056203;28;20070;-83
2021/08/11 10:52:26;;;;;;;1.73;1.33;;;;;;;38.10;22.35;98363.31;5072575;28;20508;-82
2021/08/11 10:54:54;;;;;;;3.00;1.23;;;;;;;37.45;22.57;98356.31;5071795;28;20056;-83
2021/08/11 10:57:35;;;;;;;7.13;1.30;;;;;;;37.03;24.25;98366.63;5072208;28;20059;-83
2021/08/11 11:00:09;;;;;;;2.80;1.13;;;;;;;37.82;23.15;98356.81;5055176;28;20425;-83
2021/08/11 11:02:41;;;;;;;1.58;1.10;;;;;;;38.70;21.20;98352.97;5056874;28;20040;-83
2021/08/11 11:05:28;;;;;;;1.48;1.38;;;;;;;38.69;21.87;98360.03;5057261;28;20033;-83
2021/08/11 11:08:13;;;;;;;1.58;1.48;;;;;;;37.38;22.90;98358.41;5057104;28;20049;-83
2021/08/11 11:10:42;;;;;;;1.80;1.25;;;;;;;37.65;21.69;98356.81;5069931;28;20396;-83
2021/08/11 11:13:24;;;;;;;2.05;1.20;;;;;;;38.12;21.04;98352.09;5076952;28;20060;-83
2021/08/11 11:15:54;;;;;;;1.40;1.17;;;;;;;38.20;22.36;98358.88;5072908;28;20054;-82
2021/08/11 11:18:22;;;;;;;2.42;1.45;;;;;;;37.85;20.46;98350.06;5076966;28;20031;-83
2021/08/11 11:21:00;;;;;;;3.38;1.30;;;;;;;37.73;22.27;98357.09;5076881;28;20036;-83
2021/08/11 11:23:40;;;;;;;1.35;1.15;;;;;;;37.35;21.34;98355.75;5076721;28;20087;-82
2021/08/11 11:26:10;;;;;;;1.40;1.17;;;;;;;37.16;21.38;98349.72;5076584;28;20029;-82
2021/08/11 11:28:51;;;;;;;1.50;1.40;;;;;;;37.27;22.09;98355.47;5076552;28;20531;-83
2021/08/11 11:31:35;;;;;;;1.52;0.98;;;;;;;38.22;20.32;98349.75;5059778;28;20044;-83
2021/08/11 11:34:20;;;;;;;2.25;1.30;;;;;;;38.28;20.21;98351.31;5056344;28;20036;-83
2021/08/11 11:37:06;;;;;;;4.00;1.40;;;;;;;37.96;19.83;98338.59;5056437;28;20028;-83
2021/08/11 11:39:55;;;;;;;1.13;1.02;;;;;;;38.20;19.59;98350.28;5056822;28;20029;-82
2021/08/11 11:42:27;;;;;;;2.75;1.30;;;;;;;38.42;19.74;98347.34;5056569;28;20481;-82